San Fermin Berria — EBVW — position and weather

sailwx.info

Track history (hours):
 
Tides and Currents Weather Stations Pressure Air Temp Water Temp Dewpoint Dewpoint Depression Visibility Wind Speed Wind Dir Waves Ship Positions

San Fermin Berria

Last reported at 2017-Mar-22 06:33 UTC. Time now 2017-Mar-24 00:04 UTC.
Position N 43°23' W 001°48'.

Length 30 m.

Type: Fishing. MMSI: 224114650.

Date/timePositionNaut miles runAvg speedWind from/ knotsBaromVisibWave heightAir tempDewpointWater temp
2017-Mar-22 06:33N 43°23' W 001°48'0 0.0
2017-Mar-22 05:33N 43°23' W 001°48'0 0.0
2017-Mar-22 04:34N 43°23' W 001°47'0 0.2
2017-Mar-22 03:33N 43°23' W 001°47'5 0.5
2017-Mar-21 17:26N 43°25' W 001°54'4 4.9
2017-Mar-21 16:34N 43°24' W 001°48'1 0.1
2017-Mar-21 08:24N 43°23' W 001°48'0 0.1
2017-Mar-21 07:33N 43°23' W 001°47'0 0.1
2017-Mar-21 06:33N 43°23' W 001°48'0 0.0
2017-Mar-21 05:33N 43°23' W 001°48'0 0.0
2017-Mar-21 04:33N 43°23' W 001°48'3 2.6
2017-Mar-21 03:33N 43°24' W 001°51'2 0.2
2017-Mar-20 17:24N 43°23' W 001°53'4 4.9
2017-Mar-20 16:33N 43°23' W 001°47'  
2017-Mar-17 15:25N 43°23' W 001°47'0 0.2
2017-Mar-17 14:33N 43°23' W 001°48'0 0.0
2017-Mar-17 13:33N 43°23' W 001°48'0 0.0
2017-Mar-17 12:33N 43°23' W 001°48'0 0.1
2017-Mar-17 11:33N 43°23' W 001°47'0 0.0
2017-Mar-17 10:33N 43°23' W 001°47'0 0.0
2017-Mar-17 09:33N 43°23' W 001°47'0 0.0
2017-Mar-17 08:33N 43°23' W 001°47'0 0.1
2017-Mar-17 07:33N 43°23' W 001°48'0 0.1
2017-Mar-17 06:33N 43°23' W 001°47'0 0.1
2017-Mar-17 05:33N 43°23' W 001°47'3 2.6
2017-Mar-17 04:33N 43°24' W 001°51'17 8.5
2017-Mar-17 02:33N 43°24' W 002°14'1010.0
2017-Mar-17 01:33N 43°25' W 002°28'20 2.2
2017-Mar-16 16:29N 43°24' W 002°01'8 9.1
2017-Mar-16 15:33N 43°24' W 001°50'2 1.8
2017-Mar-16 14:33N 43°23' W 001°47'0 0.0
2017-Mar-16 08:33N 43°23' W 001°48'0 0.0
2017-Mar-16 07:33N 43°23' W 001°48'0 0.0
2017-Mar-16 06:33N 43°23' W 001°48'5 4.6
2017-Mar-16 05:34N 43°24' W 001°54'36 3.6
2017-Mar-15 19:21N 43°28' W 002°43'7 7.5
2017-Mar-15 18:25N 43°26' W 002°34'28 9.4
2017-Mar-15 15:25N 43°24' W 001°55'6 6.7
2017-Mar-15 14:33N 43°23' W 001°47'0 0.0
2017-Mar-15 08:33N 43°23' W 001°47'0 0.0
2017-Mar-15 07:33N 43°23' W 001°47'0 0.0
2017-Mar-15 06:33N 43°23' W 001°47'3 3.1
2017-Mar-15 05:33N 43°25' W 001°51'2 0.1
2017-Mar-14 15:33N 43°24' W 001°49'2 0.4
2017-Mar-14 11:07N 43°23' W 001°47'0 0.0
2017-Mar-14 10:33N 43°23' W 001°47'0 0.0
2017-Mar-14 09:33N 43°23' W 001°47'6 0.5
2017-Mar-13 21:32N 43°24' W 001°55'6 6.0
2017-Mar-13 20:33N 43°24' W 001°47'  
Track history (hours):
 
Tides and Currents Weather Stations Pressure Air Temp Water Temp Dewpoint Dewpoint Depression Visibility Wind Speed Wind Dir Waves Ship Positions

San Fermin Berria

Last reported at 2017-Mar-22 06:33 UTC. Time now 2017-Mar-24 00:04 UTC.
Position N 43°23' W 001°48'.

Length 30 m.

Type: Fishing. MMSI: 224114650.

Date/timePositionNaut miles runAvg speedWind from/ knotsBaromVisibWave heightAir tempDewpointWater temp
2017-Mar-22 06:33N 43°23' W 001°48'0 0.0
2017-Mar-22 05:33N 43°23' W 001°48'0 0.0
2017-Mar-22 04:34N 43°23' W 001°47'0 0.2
2017-Mar-22 03:33N 43°23' W 001°47'5 0.5
2017-Mar-21 17:26N 43°25' W 001°54'4 4.9
2017-Mar-21 16:34N 43°24' W 001°48'1 0.1
2017-Mar-21 08:24N 43°23' W 001°48'0 0.1
2017-Mar-21 07:33N 43°23' W 001°47'0 0.1
2017-Mar-21 06:33N 43°23' W 001°48'0 0.0
2017-Mar-21 05:33N 43°23' W 001°48'0 0.0
2017-Mar-21 04:33N 43°23' W 001°48'3 2.6
2017-Mar-21 03:33N 43°24' W 001°51'2 0.2
2017-Mar-20 17:24N 43°23' W 001°53'4 4.9
2017-Mar-20 16:33N 43°23' W 001°47'  
2017-Mar-17 15:25N 43°23' W 001°47'0 0.2
2017-Mar-17 14:33N 43°23' W 001°48'0 0.0
2017-Mar-17 13:33N 43°23' W 001°48'0 0.0
2017-Mar-17 12:33N 43°23' W 001°48'0 0.1
2017-Mar-17 11:33N 43°23' W 001°47'0 0.0
2017-Mar-17 10:33N 43°23' W 001°47'0 0.0
2017-Mar-17 09:33N 43°23' W 001°47'0 0.0
2017-Mar-17 08:33N 43°23' W 001°47'0 0.1
2017-Mar-17 07:33N 43°23' W 001°48'0 0.1
2017-Mar-17 06:33N 43°23' W 001°47'0 0.1
2017-Mar-17 05:33N 43°23' W 001°47'3 2.6
2017-Mar-17 04:33N 43°24' W 001°51'17 8.5
2017-Mar-17 02:33N 43°24' W 002°14'1010.0
2017-Mar-17 01:33N 43°25' W 002°28'20 2.2
2017-Mar-16 16:29N 43°24' W 002°01'8 9.1
2017-Mar-16 15:33N 43°24' W 001°50'2 1.8
2017-Mar-16 14:33N 43°23' W 001°47'0 0.0
2017-Mar-16 08:33N 43°23' W 001°48'0 0.0
2017-Mar-16 07:33N 43°23' W 001°48'0 0.0
2017-Mar-16 06:33N 43°23' W 001°48'5 4.6
2017-Mar-16 05:34N 43°24' W 001°54'36 3.6
2017-Mar-15 19:21N 43°28' W 002°43'7 7.5
2017-Mar-15 18:25N 43°26' W 002°34'28 9.4
2017-Mar-15 15:25N 43°24' W 001°55'6 6.7
2017-Mar-15 14:33N 43°23' W 001°47'0 0.0
2017-Mar-15 08:33N 43°23' W 001°47'0 0.0
2017-Mar-15 07:33N 43°23' W 001°47'0 0.0
2017-Mar-15 06:33N 43°23' W 001°47'3 3.1
2017-Mar-15 05:33N 43°25' W 001°51'2 0.1
2017-Mar-14 15:33N 43°24' W 001°49'2 0.4
2017-Mar-14 11:07N 43°23' W 001°47'0 0.0
2017-Mar-14 10:33N 43°23' W 001°47'0 0.0
2017-Mar-14 09:33N 43°23' W 001°47'6 0.5
2017-Mar-13 21:32N 43°24' W 001°55'6 6.0
2017-Mar-13 20:33N 43°24' W 001°47'  

Dump ship's entire track history